sensor_id;sensor_type;location;lat;lon;timestamp;P1;durP1;ratioP1;P2;durP2;ratioP2
7985;SDS011;4038;42.612;23.066;2023-04-20T00:02:25;33.05;;;30.55;;
7985;SDS011;4038;42.612;23.066;2023-04-20T00:04:50;31.33;;;28.60;;
7985;SDS011;4038;42.612;23.066;2023-04-20T00:07:15;31.98;;;29.45;;
7985;SDS011;4038;42.612;23.066;2023-04-20T00:09:41;32.50;;;30.00;;
7985;SDS011;4038;42.612;23.066;2023-04-20T00:12:06;31.95;;;29.70;;
7985;SDS011;4038;42.612;23.066;2023-04-20T00:14:31;27.77;;;25.65;;
7985;SDS011;4038;42.612;23.066;2023-04-20T00:16:56;28.58;;;26.48;;
7985;SDS011;4038;42.612;23.066;2023-04-20T00:19:22;31.75;;;29.02;;
7985;SDS011;4038;42.612;23.066;2023-04-20T00:21:47;32.10;;;29.70;;
7985;SDS011;4038;42.612;23.066;2023-04-20T00:24:13;30.25;;;27.55;;
7985;SDS011;4038;42.612;23.066;2023-04-20T00:26:38;29.15;;;26.85;;
7985;SDS011;4038;42.612;23.066;2023-04-20T00:29:04;28.65;;;26.58;;
7985;SDS011;4038;42.612;23.066;2023-04-20T00:31:30;29.45;;;27.25;;
7985;SDS011;4038;42.612;23.066;2023-04-20T00:33:55;30.02;;;27.63;;
7985;SDS011;4038;42.612;23.066;2023-04-20T00:36:20;27.83;;;25.53;;
7985;SDS011;4038;42.612;23.066;2023-04-20T00:38:46;28.60;;;26.73;;
7985;SDS011;4038;42.612;23.066;2023-04-20T00:41:11;29.42;;;27.33;;
7985;SDS011;4038;42.612;23.066;2023-04-20T00:43:36;29.35;;;27.08;;
7985;SDS011;4038;42.612;23.066;2023-04-20T00:46:01;28.25;;;26.23;;
7985;SDS011;4038;42.612;23.066;2023-04-20T00:48:27;27.52;;;25.60;;
7985;SDS011;4038;42.612;23.066;2023-04-20T00:50:53;28.25;;;26.15;;
7985;SDS011;4038;42.612;23.066;2023-04-20T00:53:18;28.42;;;26.33;;
7985;SDS011;4038;42.612;23.066;2023-04-20T00:55:44;30.05;;;27.33;;
7985;SDS011;4038;42.612;23.066;2023-04-20T00:58:09;28.60;;;26.60;;
7985;SDS011;4038;42.612;23.066;2023-04-20T01:00:36;30.42;;;28.20;;
7985;SDS011;4038;42.612;23.066;2023-04-20T01:03:01;30.50;;;28.20;;
7985;SDS011;4038;42.612;23.066;2023-04-20T01:05:26;32.05;;;29.35;;
7985;SDS011;4038;42.612;23.066;2023-04-20T01:07:52;29.33;;;27.05;;
7985;SDS011;4038;42.612;23.066;2023-04-20T01:10:17;29.23;;;26.80;;
7985;SDS011;4038;42.612;23.066;2023-04-20T01:12:42;30.77;;;28.38;;
7985;SDS011;4038;42.612;23.066;2023-04-20T01:15:08;31.20;;;29.00;;
7985;SDS011;4038;42.612;23.066;2023-04-20T01:17:33;31.08;;;28.55;;
7985;SDS011;4038;42.612;23.066;2023-04-20T01:20:00;29.45;;;27.55;;
7985;SDS011;4038;42.612;23.066;2023-04-20T01:22:26;29.77;;;27.77;;
7985;SDS011;4038;42.612;23.066;2023-04-20T01:24:51;29.70;;;27.63;;
7985;SDS011;4038;42.612;23.066;2023-04-20T01:27:16;28.88;;;26.77;;
7985;SDS011;4038;42.612;23.066;2023-04-20T01:29:42;28.17;;;25.98;;
7985;SDS011;4038;42.612;23.066;2023-04-20T01:32:08;27.95;;;25.85;;
7985;SDS011;4038;42.612;23.066;2023-04-20T01:34:33;29.25;;;27.25;;
7985;SDS011;4038;42.612;23.066;2023-04-20T01:36:58;29.58;;;27.55;;
7985;SDS011;4038;42.612;23.066;2023-04-20T01:39:24;29.75;;;27.55;;
7985;SDS011;4038;42.612;23.066;2023-04-20T01:41:49;29.13;;;27.13;;
7985;SDS011;4038;42.612;23.066;2023-04-20T01:44:15;30.10;;;28.05;;
7985;SDS011;4038;42.612;23.066;2023-04-20T01:46:40;29.33;;;27.33;;
7985;SDS011;4038;42.612;23.066;2023-04-20T01:49:06;28.92;;;26.88;;
7985;SDS011;4038;42.612;23.066;2023-04-20T01:51:33;28.60;;;26.60;;
7985;SDS011;4038;42.612;23.066;2023-04-20T01:53:58;28.42;;;26.38;;
7985;SDS011;4038;42.612;23.066;2023-04-20T01:56:23;32.33;;;28.05;;
7985;SDS011;4038;42.612;23.066;2023-04-20T01:58:49;29.98;;;27.90;;
7985;SDS011;4038;42.612;23.066;2023-04-20T02:01:14;28.58;;;26.45;;
7985;SDS011;4038;42.612;23.066;2023-04-20T02:03:41;28.88;;;26.73;;
7985;SDS011;4038;42.612;23.066;2023-04-20T02:06:07;28.95;;;26.95;;
7985;SDS011;4038;42.612;23.066;2023-04-20T02:08:32;28.73;;;26.73;;
7985;SDS011;4038;42.612;23.066;2023-04-20T02:10:57;29.08;;;27.13;;
7985;SDS011;4038;42.612;23.066;2023-04-20T02:13:22;27.65;;;25.55;;
7985;SDS011;4038;42.612;23.066;2023-04-20T02:15:48;29.45;;;27.13;;
7985;SDS011;4038;42.612;23.066;2023-04-20T02:18:13;28.13;;;26.25;;
7985;SDS011;4038;42.612;23.066;2023-04-20T02:20:40;29.35;;;27.23;;
7985;SDS011;4038;42.612;23.066;2023-04-20T02:23:05;29.00;;;26.90;;
7985;SDS011;4038;42.612;23.066;2023-04-20T02:25:30;30.63;;;28.17;;
7985;SDS011;4038;42.612;23.066;2023-04-20T02:27:56;29.48;;;26.98;;
7985;SDS011;4038;42.612;23.066;2023-04-20T02:30:21;30.02;;;27.73;;
7985;SDS011;4038;42.612;23.066;2023-04-20T02:32:46;28.88;;;26.77;;
7985;SDS011;4038;42.612;23.066;2023-04-20T02:35:12;30.00;;;27.60;;
7985;SDS011;4038;42.612;23.066;2023-04-20T02:37:37;29.27;;;27.17;;
7985;SDS011;4038;42.612;23.066;2023-04-20T02:40:02;30.00;;;27.80;;
7985;SDS011;4038;42.612;23.066;2023-04-20T02:42:28;27.95;;;25.95;;
7985;SDS011;4038;42.612;23.066;2023-04-20T02:44:54;29.08;;;26.73;;
7985;SDS011;4038;42.612;23.066;2023-04-20T02:47:19;28.55;;;26.40;;
7985;SDS011;4038;42.612;23.066;2023-04-20T02:49:45;29.27;;;27.17;;
7985;SDS011;4038;42.612;23.066;2023-04-20T02:52:11;28.48;;;26.55;;
7985;SDS011;4038;42.612;23.066;2023-04-20T02:54:36;27.92;;;25.92;;
7985;SDS011;4038;42.612;23.066;2023-04-20T02:57:01;27.73;;;25.73;;
7985;SDS011;4038;42.612;23.066;2023-04-20T02:59:44;28.60;;;26.48;;
7985;SDS011;4038;42.612;23.066;2023-04-20T03:02:09;28.73;;;26.83;;
7985;SDS011;4038;42.612;23.066;2023-04-20T03:04:34;29.30;;;27.25;;
7985;SDS011;4038;42.612;23.066;2023-04-20T03:07:00;28.98;;;26.90;;
7985;SDS011;4038;42.612;23.066;2023-04-20T03:09:26;29.83;;;27.58;;
7985;SDS011;4038;42.612;23.066;2023-04-20T03:11:51;31.80;;;29.40;;
7985;SDS011;4038;42.612;23.066;2023-04-20T03:14:17;30.05;;;27.85;;
7985;SDS011;4038;42.612;23.066;2023-04-20T03:16:42;30.38;;;28.08;;
7985;SDS011;4038;42.612;23.066;2023-04-20T03:19:07;30.17;;;27.88;;
7985;SDS011;4038;42.612;23.066;2023-04-20T03:21:33;30.27;;;28.08;;
7985;SDS011;4038;42.612;23.066;2023-04-20T03:23:58;30.80;;;28.47;;
7985;SDS011;4038;42.612;23.066;2023-04-20T03:26:24;30.73;;;28.43;;
7985;SDS011;4038;42.612;23.066;2023-04-20T03:28:49;29.70;;;27.50;;
7985;SDS011;4038;42.612;23.066;2023-04-20T03:31:15;30.10;;;27.80;;
7985;SDS011;4038;42.612;23.066;2023-04-20T03:33:40;31.00;;;28.67;;
7985;SDS011;4038;42.612;23.066;2023-04-20T03:36:05;29.60;;;27.45;;
7985;SDS011;4038;42.612;23.066;2023-04-20T03:38:31;28.58;;;26.58;;
7985;SDS011;4038;42.612;23.066;2023-04-20T03:40:56;29.10;;;27.00;;
7985;SDS011;4038;42.612;23.066;2023-04-20T03:43:21;30.48;;;28.08;;
7985;SDS011;4038;42.612;23.066;2023-04-20T03:45:46;28.63;;;26.45;;
7985;SDS011;4038;42.612;23.066;2023-04-20T03:48:12;28.55;;;26.45;;
7985;SDS011;4038;42.612;23.066;2023-04-20T03:50:37;27.80;;;25.80;;
7985;SDS011;4038;42.612;23.066;2023-04-20T03:53:02;27.98;;;25.98;;
7985;SDS011;4038;42.612;23.066;2023-04-20T03:55:27;28.70;;;26.48;;
7985;SDS011;4038;42.612;23.066;2023-04-20T03:57:53;28.63;;;26.42;;
7985;SDS011;4038;42.612;23.066;2023-04-20T04:00:18;29.00;;;26.70;;
7985;SDS011;4038;42.612;23.066;2023-04-20T04:02:44;29.13;;;26.80;;
7985;SDS011;4038;42.612;23.066;2023-04-20T04:05:09;29.52;;;27.23;;
7985;SDS011;4038;42.612;23.066;2023-04-20T04:07:34;30.60;;;28.40;;
7985;SDS011;4038;42.612;23.066;2023-04-20T04:10:00;30.23;;;27.83;;
7985;SDS011;4038;42.612;23.066;2023-04-20T04:12:27;29.10;;;26.70;;
7985;SDS011;4038;42.612;23.066;2023-04-20T04:14:52;29.92;;;27.40;;
7985;SDS011;4038;42.612;23.066;2023-04-20T04:17:18;29.70;;;27.27;;
7985;SDS011;4038;42.612;23.066;2023-04-20T04:19:43;29.13;;;26.83;;
7985;SDS011;4038;42.612;23.066;2023-04-20T04:22:08;28.75;;;26.55;;
7985;SDS011;4038;42.612;23.066;2023-04-20T04:24:33;28.15;;;25.95;;
7985;SDS011;4038;42.612;23.066;2023-04-20T04:27:00;29.30;;;26.70;;
7985;SDS011;4038;42.612;23.066;2023-04-20T04:29:29;27.77;;;25.67;;
7985;SDS011;4038;42.612;23.066;2023-04-20T04:31:54;28.30;;;26.20;;
7985;SDS011;4038;42.612;23.066;2023-04-20T04:34:19;28.83;;;26.35;;
7985;SDS011;4038;42.612;23.066;2023-04-20T04:36:45;29.33;;;26.77;;
7985;SDS011;4038;42.612;23.066;2023-04-20T04:39:10;27.77;;;25.58;;
7985;SDS011;4038;42.612;23.066;2023-04-20T04:41:36;28.65;;;26.42;;
7985;SDS011;4038;42.612;23.066;2023-04-20T04:44:01;29.20;;;26.90;;
7985;SDS011;4038;42.612;23.066;2023-04-20T04:46:27;29.27;;;26.80;;
7985;SDS011;4038;42.612;23.066;2023-04-20T04:48:52;28.33;;;26.02;;
7985;SDS011;4038;42.612;23.066;2023-04-20T04:51:17;26.90;;;24.80;;
7985;SDS011;4038;42.612;23.066;2023-04-20T04:53:43;27.45;;;25.25;;
7985;SDS011;4038;42.612;23.066;2023-04-20T04:56:10;28.75;;;26.60;;
7985;SDS011;4038;42.612;23.066;2023-04-20T04:58:37;28.95;;;26.58;;
7985;SDS011;4038;42.612;23.066;2023-04-20T05:01:02;28.70;;;26.60;;
7985;SDS011;4038;42.612;23.066;2023-04-20T05:03:27;30.75;;;28.17;;
7985;SDS011;4038;42.612;23.066;2023-04-20T05:05:53;28.08;;;25.90;;
7985;SDS011;4038;42.612;23.066;2023-04-20T05:08:18;34.50;;;31.35;;
7985;SDS011;4038;42.612;23.066;2023-04-20T05:10:45;31.50;;;29.05;;
7985;SDS011;4038;42.612;23.066;2023-04-20T05:13:10;30.60;;;28.17;;
7985;SDS011;4038;42.612;23.066;2023-04-20T05:15:35;32.30;;;29.50;;
7985;SDS011;4038;42.612;23.066;2023-04-20T05:18:01;31.02;;;28.40;;
7985;SDS011;4038;42.612;23.066;2023-04-20T05:20:26;31.58;;;29.08;;
7985;SDS011;4038;42.612;23.066;2023-04-20T05:22:52;31.35;;;28.85;;
7985;SDS011;4038;42.612;23.066;2023-04-20T05:25:17;32.30;;;29.70;;
7985;SDS011;4038;42.612;23.066;2023-04-20T05:27:42;32.58;;;29.70;;
7985;SDS011;4038;42.612;23.066;2023-04-20T05:30:07;33.05;;;30.35;;
7985;SDS011;4038;42.612;23.066;2023-04-20T05:32:33;32.85;;;30.05;;
7985;SDS011;4038;42.612;23.066;2023-04-20T05:34:58;36.97;;;34.05;;
7985;SDS011;4038;42.612;23.066;2023-04-20T05:37:24;33.17;;;30.45;;
7985;SDS011;4038;42.612;23.066;2023-04-20T05:39:51;33.22;;;30.52;;
7985;SDS011;4038;42.612;23.066;2023-04-20T05:42:16;33.40;;;30.38;;
7985;SDS011;4038;42.612;23.066;2023-04-20T05:44:41;33.97;;;31.35;;
7985;SDS011;4038;42.612;23.066;2023-04-20T05:47:07;33.88;;;30.77;;
7985;SDS011;4038;42.612;23.066;2023-04-20T05:49:33;33.78;;;30.60;;
7985;SDS011;4038;42.612;23.066;2023-04-20T05:51:58;31.85;;;29.30;;
7985;SDS011;4038;42.612;23.066;2023-04-20T05:54:25;33.58;;;30.88;;
7985;SDS011;4038;42.612;23.066;2023-04-20T05:56:52;32.67;;;29.70;;
7985;SDS011;4038;42.612;23.066;2023-04-20T05:59:17;32.88;;;29.98;;
7985;SDS011;4038;42.612;23.066;2023-04-20T06:01:42;32.42;;;29.52;;
7985;SDS011;4038;42.612;23.066;2023-04-20T06:04:08;32.92;;;30.00;;
7985;SDS011;4038;42.612;23.066;2023-04-20T06:06:33;32.92;;;29.98;;
7985;SDS011;4038;42.612;23.066;2023-04-20T06:08:58;31.80;;;29.23;;
7985;SDS011;4038;42.612;23.066;2023-04-20T06:11:23;33.10;;;30.40;;
7985;SDS011;4038;42.612;23.066;2023-04-20T06:13:49;32.25;;;29.67;;
7985;SDS011;4038;42.612;23.066;2023-04-20T06:16:14;31.73;;;28.95;;
7985;SDS011;4038;42.612;23.066;2023-04-20T06:18:40;31.52;;;28.90;;
7985;SDS011;4038;42.612;23.066;2023-04-20T06:21:07;32.33;;;29.33;;
7985;SDS011;4038;42.612;23.066;2023-04-20T06:23:33;33.00;;;30.00;;
7985;SDS011;4038;42.612;23.066;2023-04-20T06:25:58;31.58;;;29.05;;
7985;SDS011;4038;42.612;23.066;2023-04-20T06:28:23;32.58;;;30.08;;
7985;SDS011;4038;42.612;23.066;2023-04-20T06:30:48;32.47;;;29.52;;
7985;SDS011;4038;42.612;23.066;2023-04-20T06:33:14;31.90;;;29.33;;
7985;SDS011;4038;42.612;23.066;2023-04-20T06:35:41;32.83;;;30.02;;
7985;SDS011;4038;42.612;23.066;2023-04-20T06:38:06;32.55;;;29.90;;
7985;SDS011;4038;42.612;23.066;2023-04-20T06:40:32;32.28;;;29.70;;
7985;SDS011;4038;42.612;23.066;2023-04-20T06:42:57;31.38;;;28.95;;
7985;SDS011;4038;42.612;23.066;2023-04-20T06:45:22;34.58;;;31.73;;
7985;SDS011;4038;42.612;23.066;2023-04-20T06:47:47;33.15;;;30.30;;
7985;SDS011;4038;42.612;23.066;2023-04-20T06:50:13;31.50;;;29.00;;
7985;SDS011;4038;42.612;23.066;2023-04-20T06:52:38;32.25;;;29.55;;
7985;SDS011;4038;42.612;23.066;2023-04-20T06:55:04;34.55;;;31.70;;
7985;SDS011;4038;42.612;23.066;2023-04-20T06:57:29;32.75;;;30.05;;
7985;SDS011;4038;42.612;23.066;2023-04-20T06:59:54;33.47;;;30.77;;
7985;SDS011;4038;42.612;23.066;2023-04-20T07:02:20;34.22;;;31.50;;
7985;SDS011;4038;42.612;23.066;2023-04-20T07:04:45;33.42;;;30.88;;
7985;SDS011;4038;42.612;23.066;2023-04-20T07:07:10;33.53;;;30.73;;
7985;SDS011;4038;42.612;23.066;2023-04-20T07:09:35;35.03;;;32.10;;
7985;SDS011;4038;42.612;23.066;2023-04-20T07:12:01;33.88;;;31.17;;
7985;SDS011;4038;42.612;23.066;2023-04-20T07:14:26;36.45;;;33.33;;
7985;SDS011;4038;42.612;23.066;2023-04-20T07:16:52;35.22;;;32.25;;
7985;SDS011;4038;42.612;23.066;2023-04-20T07:19:17;34.85;;;31.88;;
7985;SDS011;4038;42.612;23.066;2023-04-20T07:21:42;34.40;;;31.38;;
7985;SDS011;4038;42.612;23.066;2023-04-20T07:24:08;33.72;;;30.60;;
7985;SDS011;4038;42.612;23.066;2023-04-20T07:26:33;34.45;;;31.13;;
7985;SDS011;4038;42.612;23.066;2023-04-20T07:28:58;34.33;;;30.85;;
7985;SDS011;4038;42.612;23.066;2023-04-20T07:31:24;35.25;;;30.25;;
7985;SDS011;4038;42.612;23.066;2023-04-20T07:33:49;36.25;;;30.75;;
7985;SDS011;4038;42.612;23.066;2023-04-20T07:36:14;41.53;;;31.08;;
7985;SDS011;4038;42.612;23.066;2023-04-20T07:38:40;33.70;;;30.33;;
7985;SDS011;4038;42.612;23.066;2023-04-20T07:41:07;35.60;;;30.70;;
7985;SDS011;4038;42.612;23.066;2023-04-20T07:43:33;46.10;;;33.13;;
7985;SDS011;4038;42.612;23.066;2023-04-20T07:45:58;38.42;;;31.80;;
7985;SDS011;4038;42.612;23.066;2023-04-20T07:48:23;44.47;;;32.42;;
7985;SDS011;4038;42.612;23.066;2023-04-20T07:50:48;37.45;;;33.30;;
7985;SDS011;4038;42.612;23.066;2023-04-20T07:53:14;38.65;;;34.38;;
7985;SDS011;4038;42.612;23.066;2023-04-20T07:55:39;39.30;;;33.33;;
7985;SDS011;4038;42.612;23.066;2023-04-20T07:58:04;46.22;;;33.60;;
7985;SDS011;4038;42.612;23.066;2023-04-20T08:00:30;48.85;;;35.22;;
7985;SDS011;4038;42.612;23.066;2023-04-20T08:02:55;53.22;;;36.03;;
7985;SDS011;4038;42.612;23.066;2023-04-20T08:05:20;42.92;;;33.95;;
7985;SDS011;4038;42.612;23.066;2023-04-20T08:07:46;42.17;;;32.60;;
7985;SDS011;4038;42.612;23.066;2023-04-20T08:10:11;44.63;;;34.75;;
7985;SDS011;4038;42.612;23.066;2023-04-20T08:12:39;69.10;;;40.65;;
7985;SDS011;4038;42.612;23.066;2023-04-20T08:15:05;52.00;;;36.47;;
7985;SDS011;4038;42.612;23.066;2023-04-20T08:17:31;51.17;;;34.67;;
7985;SDS011;4038;42.612;23.066;2023-04-20T08:19:56;40.63;;;34.67;;
7985;SDS011;4038;42.612;23.066;2023-04-20T08:22:21;38.00;;;34.05;;
7985;SDS011;4038;42.612;23.066;2023-04-20T08:24:50;44.47;;;35.63;;
7985;SDS011;4038;42.612;23.066;2023-04-20T08:27:16;50.22;;;34.97;;
7985;SDS011;4038;42.612;23.066;2023-04-20T08:29:41;43.05;;;32.63;;
7985;SDS011;4038;42.612;23.066;2023-04-20T08:32:06;52.17;;;34.88;;
7985;SDS011;4038;42.612;23.066;2023-04-20T08:34:33;65.00;;;37.03;;
7985;SDS011;4038;42.612;23.066;2023-04-20T08:36:58;68.07;;;35.75;;
7985;SDS011;4038;42.612;23.066;2023-04-20T08:39:23;50.30;;;36.05;;
7985;SDS011;4038;42.612;23.066;2023-04-20T08:41:49;58.67;;;36.90;;
7985;SDS011;4038;42.612;23.066;2023-04-20T08:44:17;59.83;;;37.72;;
7985;SDS011;4038;42.612;23.066;2023-04-20T08:46:43;43.72;;;34.35;;
7985;SDS011;4038;42.612;23.066;2023-04-20T08:49:10;50.10;;;36.92;;
7985;SDS011;4038;42.612;23.066;2023-04-20T08:51:36;52.25;;;37.75;;
7985;SDS011;4038;42.612;23.066;2023-04-20T08:54:04;52.90;;;40.40;;
7985;SDS011;4038;42.612;23.066;2023-04-20T08:56:33;46.45;;;35.45;;
7985;SDS011;4038;42.612;23.066;2023-04-20T08:58:59;44.00;;;35.10;;
7985;SDS011;4038;42.612;23.066;2023-04-20T09:01:27;53.40;;;37.28;;
7985;SDS011;4038;42.612;23.066;2023-04-20T09:03:53;51.60;;;35.67;;
7985;SDS011;4038;42.612;23.066;2023-04-20T09:06:18;46.33;;;36.17;;
7985;SDS011;4038;42.612;23.066;2023-04-20T09:08:44;55.53;;;35.28;;
7985;SDS011;4038;42.612;23.066;2023-04-20T09:14:06;37.58;;;33.28;;
7985;SDS011;4038;42.612;23.066;2023-04-20T09:16:34;54.00;;;34.92;;
7985;SDS011;4038;42.612;23.066;2023-04-20T09:18:59;47.88;;;34.38;;
7985;SDS011;4038;42.612;23.066;2023-04-20T09:21:25;55.97;;;34.15;;
7985;SDS011;4038;42.612;23.066;2023-04-20T09:24:09;33.80;;;30.05;;
7985;SDS011;4038;42.612;23.066;2023-04-20T09:26:35;32.22;;;29.10;;
7985;SDS011;4038;42.612;23.066;2023-04-20T09:29:03;30.73;;;28.13;;
7985;SDS011;4038;42.612;23.066;2023-04-20T09:31:40;30.20;;;27.90;;
7985;SDS011;4038;42.612;23.066;2023-04-20T09:34:05;30.58;;;28.15;;
7985;SDS011;4038;42.612;23.066;2023-04-20T09:36:44;30.17;;;27.67;;
7985;SDS011;4038;42.612;23.066;2023-04-20T09:39:14;28.95;;;26.85;;
7985;SDS011;4038;42.612;23.066;2023-04-20T09:41:40;29.35;;;27.10;;
7985;SDS011;4038;42.612;23.066;2023-04-20T09:44:06;29.90;;;27.70;;
7985;SDS011;4038;42.612;23.066;2023-04-20T09:46:32;30.15;;;27.73;;
7985;SDS011;4038;42.612;23.066;2023-04-20T09:48:58;29.63;;;27.45;;
7985;SDS011;4038;42.612;23.066;2023-04-20T09:51:25;27.95;;;25.95;;
7985;SDS011;4038;42.612;23.066;2023-04-20T09:53:52;28.35;;;26.45;;
7985;SDS011;4038;42.612;23.066;2023-04-20T09:56:21;30.00;;;27.80;;
7985;SDS011;4038;42.612;23.066;2023-04-20T09:58:46;28.50;;;26.42;;
7985;SDS011;4038;42.612;23.066;2023-04-20T10:01:12;28.25;;;26.15;;
7985;SDS011;4038;42.612;23.066;2023-04-20T10:03:39;28.85;;;26.58;;
7985;SDS011;4038;42.612;23.066;2023-04-20T10:06:05;28.45;;;26.45;;
7985;SDS011;4038;42.612;23.066;2023-04-20T10:08:39;30.08;;;27.88;;
7985;SDS011;4038;42.612;23.066;2023-04-20T10:11:06;29.70;;;27.38;;
7985;SDS011;4038;42.612;23.066;2023-04-20T10:13:32;30.35;;;28.15;;
7985;SDS011;4038;42.612;23.066;2023-04-20T10:15:57;30.52;;;28.23;;
7985;SDS011;4038;42.612;23.066;2023-04-20T10:18:23;29.20;;;27.05;;
7985;SDS011;4038;42.612;23.066;2023-04-20T10:20:49;28.77;;;26.58;;
7985;SDS011;4038;42.612;23.066;2023-04-20T10:23:14;30.08;;;27.88;;
7985;SDS011;4038;42.612;23.066;2023-04-20T10:25:42;29.23;;;27.13;;
7985;SDS011;4038;42.612;23.066;2023-04-20T10:28:09;29.23;;;27.08;;
7985;SDS011;4038;42.612;23.066;2023-04-20T10:30:35;28.92;;;26.73;;
7985;SDS011;4038;42.612;23.066;2023-04-20T10:33:08;29.63;;;27.42;;
7985;SDS011;4038;42.612;23.066;2023-04-20T10:35:52;29.73;;;27.63;;
7985;SDS011;4038;42.612;23.066;2023-04-20T10:41:18;29.15;;;27.05;;
7985;SDS011;4038;42.612;23.066;2023-04-20T10:43:42;29.65;;;27.35;;
7985;SDS011;4038;42.612;23.066;2023-04-20T10:46:17;28.52;;;26.38;;
7985;SDS011;4038;42.612;23.066;2023-04-20T10:48:53;29.52;;;27.33;;
7985;SDS011;4038;42.612;23.066;2023-04-20T10:51:18;29.48;;;27.17;;
7985;SDS011;4038;42.612;23.066;2023-04-20T10:53:43;29.92;;;27.65;;
7985;SDS011;4038;42.612;23.066;2023-04-20T10:56:09;27.70;;;25.67;;
7985;SDS011;4038;42.612;23.066;2023-04-20T10:58:34;28.75;;;26.65;;
7985;SDS011;4038;42.612;23.066;2023-04-20T11:01:00;28.48;;;26.30;;
7985;SDS011;4038;42.612;23.066;2023-04-20T11:03:30;29.58;;;27.23;;
7985;SDS011;4038;42.612;23.066;2023-04-20T11:05:59;28.52;;;26.50;;
7985;SDS011;4038;42.612;23.066;2023-04-20T11:11:02;28.30;;;26.30;;
7985;SDS011;4038;42.612;23.066;2023-04-20T11:13:27;27.48;;;25.58;;
7985;SDS011;4038;42.612;23.066;2023-04-20T11:15:53;27.23;;;25.42;;
7985;SDS011;4038;42.612;23.066;2023-04-20T11:18:18;26.60;;;24.70;;
7985;SDS011;4038;42.612;23.066;2023-04-20T11:20:50;27.45;;;25.55;;
7985;SDS011;4038;42.612;23.066;2023-04-20T11:23:17;27.55;;;25.50;;
7985;SDS011;4038;42.612;23.066;2023-04-20T11:25:52;27.65;;;25.33;;
7985;SDS011;4038;42.612;23.066;2023-04-20T11:28:18;26.63;;;24.90;;
7985;SDS011;4038;42.612;23.066;2023-04-20T11:30:43;27.08;;;25.05;;
7985;SDS011;4038;42.612;23.066;2023-04-20T11:33:09;25.75;;;23.95;;
7985;SDS011;4038;42.612;23.066;2023-04-20T11:35:35;27.17;;;25.35;;
7985;SDS011;4038;42.612;23.066;2023-04-20T11:38:01;27.40;;;25.50;;
7985;SDS011;4038;42.612;23.066;2023-04-20T11:40:26;27.70;;;25.80;;
7985;SDS011;4038;42.612;23.066;2023-04-20T11:42:52;28.70;;;26.80;;
7985;SDS011;4038;42.612;23.066;2023-04-20T11:45:17;27.75;;;25.73;;
7985;SDS011;4038;42.612;23.066;2023-04-20T11:47:42;46.42;;;41.83;;
7985;SDS011;4038;42.612;23.066;2023-04-20T11:50:09;28.55;;;26.25;;
7985;SDS011;4038;42.612;23.066;2023-04-20T11:52:35;29.20;;;27.05;;
7985;SDS011;4038;42.612;23.066;2023-04-20T11:55:00;31.10;;;28.80;;
7985;SDS011;4038;42.612;23.066;2023-04-20T11:57:26;31.17;;;28.70;;
7985;SDS011;4038;42.612;23.066;2023-04-20T11:59:51;33.40;;;30.40;;
7985;SDS011;4038;42.612;23.066;2023-04-20T12:02:16;41.10;;;36.10;;
7985;SDS011;4038;42.612;23.066;2023-04-20T12:04:42;33.22;;;30.35;;
7985;SDS011;4038;42.612;23.066;2023-04-20T12:07:07;27.27;;;25.38;;
7985;SDS011;4038;42.612;23.066;2023-04-20T12:09:33;26.85;;;24.95;;
7985;SDS011;4038;42.612;23.066;2023-04-20T12:12:05;28.42;;;26.08;;
7985;SDS011;4038;42.612;23.066;2023-04-20T12:14:31;27.40;;;25.30;;
7985;SDS011;4038;42.612;23.066;2023-04-20T12:16:57;34.40;;;32.00;;
7985;SDS011;4038;42.612;23.066;2023-04-20T12:19:23;33.75;;;31.25;;
7985;SDS011;4038;42.612;23.066;2023-04-20T12:21:48;32.90;;;30.33;;
7985;SDS011;4038;42.612;23.066;2023-04-20T12:24:14;33.80;;;31.13;;
7985;SDS011;4038;42.612;23.066;2023-04-20T12:26:39;35.42;;;32.63;;
7985;SDS011;4038;42.612;23.066;2023-04-20T12:29:04;35.53;;;32.63;;
7985;SDS011;4038;42.612;23.066;2023-04-20T12:31:31;36.58;;;33.42;;
7985;SDS011;4038;42.612;23.066;2023-04-20T12:33:56;38.88;;;35.42;;
7985;SDS011;4038;42.612;23.066;2023-04-20T12:36:21;38.50;;;35.05;;
7985;SDS011;4038;42.612;23.066;2023-04-20T12:38:46;41.63;;;38.13;;
7985;SDS011;4038;42.612;23.066;2023-04-20T12:41:14;39.13;;;35.70;;
7985;SDS011;4038;42.612;23.066;2023-04-20T12:43:40;37.92;;;34.80;;
7985;SDS011;4038;42.612;23.066;2023-04-20T12:46:05;38.50;;;35.38;;
7985;SDS011;4038;42.612;23.066;2023-04-20T12:48:31;38.78;;;35.38;;
7985;SDS011;4038;42.612;23.066;2023-04-20T12:50:56;40.45;;;37.05;;
7985;SDS011;4038;42.612;23.066;2023-04-20T12:53:21;40.45;;;37.03;;
7985;SDS011;4038;42.612;23.066;2023-04-20T12:55:46;38.10;;;35.08;;
7985;SDS011;4038;42.612;23.066;2023-04-20T12:58:12;37.58;;;34.38;;
7985;SDS011;4038;42.612;23.066;2023-04-20T13:00:37;38.13;;;34.83;;
7985;SDS011;4038;42.612;23.066;2023-04-20T13:03:02;40.13;;;36.53;;
7985;SDS011;4038;42.612;23.066;2023-04-20T13:05:28;38.90;;;35.58;;
7985;SDS011;4038;42.612;23.066;2023-04-20T13:07:53;39.13;;;35.63;;
7985;SDS011;4038;42.612;23.066;2023-04-20T13:10:18;42.10;;;38.72;;
7985;SDS011;4038;42.612;23.066;2023-04-20T13:12:43;41.85;;;38.50;;
7985;SDS011;4038;42.612;23.066;2023-04-20T13:15:09;42.15;;;38.35;;
7985;SDS011;4038;42.612;23.066;2023-04-20T13:17:34;45.53;;;41.83;;
7985;SDS011;4038;42.612;23.066;2023-04-20T13:20:00;48.53;;;44.60;;
7985;SDS011;4038;42.612;23.066;2023-04-20T13:22:29;50.90;;;46.45;;
7985;SDS011;4038;42.612;23.066;2023-04-20T13:24:54;47.65;;;43.45;;
7985;SDS011;4038;42.612;23.066;2023-04-20T13:27:19;46.55;;;42.65;;
7985;SDS011;4038;42.612;23.066;2023-04-20T13:29:44;47.50;;;43.53;;
7985;SDS011;4038;42.612;23.066;2023-04-20T13:32:10;45.50;;;41.80;;
7985;SDS011;4038;42.612;23.066;2023-04-20T13:34:35;42.58;;;39.17;;
7985;SDS011;4038;42.612;23.066;2023-04-20T13:37:00;40.83;;;37.78;;
7985;SDS011;4038;42.612;23.066;2023-04-20T13:39:26;39.63;;;36.45;;
7985;SDS011;4038;42.612;23.066;2023-04-20T13:41:51;38.92;;;35.65;;
7985;SDS011;4038;42.612;23.066;2023-04-20T13:44:17;38.50;;;35.50;;
7985;SDS011;4038;42.612;23.066;2023-04-20T13:46:42;44.03;;;40.28;;
7985;SDS011;4038;42.612;23.066;2023-04-20T13:49:08;40.55;;;36.95;;
7985;SDS011;4038;42.612;23.066;2023-04-20T13:51:33;36.72;;;33.42;;
7985;SDS011;4038;42.612;23.066;2023-04-20T13:53:59;37.95;;;34.67;;
7985;SDS011;4038;42.612;23.066;2023-04-20T13:56:24;34.88;;;32.30;;
7985;SDS011;4038;42.612;23.066;2023-04-20T13:58:49;34.60;;;31.80;;
7985;SDS011;4038;42.612;23.066;2023-04-20T14:01:15;28.73;;;26.52;;
7985;SDS011;4038;42.612;23.066;2023-04-20T14:03:40;28.80;;;26.70;;
7985;SDS011;4038;42.612;23.066;2023-04-20T14:06:06;28.48;;;26.38;;
7985;SDS011;4038;42.612;23.066;2023-04-20T14:08:31;27.00;;;25.10;;
7985;SDS011;4038;42.612;23.066;2023-04-20T14:10:57;27.75;;;25.75;;
7985;SDS011;4038;42.612;23.066;2023-04-20T14:13:22;25.60;;;23.83;;
7985;SDS011;4038;42.612;23.066;2023-04-20T14:15:47;28.73;;;26.42;;
7985;SDS011;4038;42.612;23.066;2023-04-20T14:18:13;26.88;;;24.85;;
7985;SDS011;4038;42.612;23.066;2023-04-20T14:20:38;25.75;;;23.95;;
7985;SDS011;4038;42.612;23.066;2023-04-20T14:23:03;26.38;;;24.50;;
7985;SDS011;4038;42.612;23.066;2023-04-20T14:25:29;26.75;;;24.52;;
7985;SDS011;4038;42.612;23.066;2023-04-20T14:27:54;25.98;;;24.17;;
7985;SDS011;4038;42.612;23.066;2023-04-20T14:30:19;27.33;;;25.20;;
7985;SDS011;4038;42.612;23.066;2023-04-20T14:32:52;26.52;;;24.63;;
7985;SDS011;4038;42.612;23.066;2023-04-20T14:35:18;26.95;;;25.13;;